Time;durP1;ratioP1;P1;durP2;ratioP2;P2;SDS_P1;SDS_P2;PMS_P1;PMS_P2;Temp;Humidity;BMP_temperature;BMP_pressure;BME280_temperature;BME280_humidity;BME280_pressure;Samples;Min_cycle;Max_cycle;Signal;HPM_P1;HPM_P2
2022/06/01 00:01:33;;;;;;;3.10;1.30;;;15.70;51.30;;;;;;4980309;28;20057;-48
2022/06/01 00:04:01;;;;;;;1.30;0.98;;;15.70;51.50;;;;;;4982788;28;20054;-45
2022/06/01 00:06:29;;;;;;;2.35;1.40;;;15.70;51.60;;;;;;4982178;28;20520;-45
2022/06/01 00:08:57;;;;;;;1.35;1.10;;;15.60;51.70;;;;;;4979326;28;20054;-47
2022/06/01 00:11:25;;;;;;;5.40;1.52;;;15.60;51.90;;;;;;4980674;28;20057;-49
2022/06/01 00:13:53;;;;;;;4.30;1.25;;;15.60;52.00;;;;;;4982791;28;20413;-46
2022/06/01 00:16:22;;;;;;;1.67;1.33;;;15.60;52.10;;;;;;4977856;28;20050;-45
2022/06/01 00:18:49;;;;;;;1.73;1.25;;;15.50;52.20;;;;;;4982027;28;20058;-49
2022/06/01 00:21:17;;;;;;;3.03;1.40;;;15.50;52.30;;;;;;4979644;28;20071;-46
2022/06/01 00:23:44;;;;;;;2.75;1.58;;;15.50;52.40;;;;;;4981647;28;20050;-46
2022/06/01 00:26:13;;;;;;;2.15;1.48;;;15.50;52.60;;;;;;4979478;28;20058;-48
2022/06/01 00:28:41;;;;;;;1.58;1.20;;;15.50;52.70;;;;;;4981768;28;20054;-50
2022/06/01 00:31:11;;;;;;;2.70;1.38;;;15.50;52.60;;;;;;4980241;28;20058;-50
2022/06/01 00:33:38;;;;;;;3.10;1.10;;;15.50;52.60;;;;;;4982042;28;20065;-46
2022/06/01 00:36:07;;;;;;;2.03;1.10;;;15.50;52.60;;;;;;4977825;28;20058;-47
2022/06/01 00:38:35;;;;;;;3.00;1.42;;;15.50;52.60;;;;;;4980444;28;20054;-45
2022/06/01 00:41:02;;;;;;;2.20;1.40;;;15.40;52.50;;;;;;4981265;28;20061;-47
2022/06/01 00:43:44;;;;;;;3.15;1.50;;;15.50;52.70;;;;;;4982774;28;20065;-47
2022/06/01 00:46:13;;;;;;;3.10;1.20;;;15.50;52.90;;;;;;4979501;28;20517;-46
2022/06/01 00:48:44;;;;;;;1.58;1.10;;;15.40;52.80;;;;;;4981540;28;20053;-45
2022/06/01 00:51:14;;;;;;;2.42;1.00;;;15.40;53.00;;;;;;4979251;28;20058;-47
2022/06/01 00:53:45;;;;;;;6.15;1.40;;;15.40;53.00;;;;;;4981532;28;20062;-47
2022/06/01 00:56:18;;;;;;;1.98;1.15;;;15.40;53.10;;;;;;4979554;28;20070;-49
2022/06/01 00:58:51;;;;;;;3.03;1.27;;;15.40;53.10;;;;;;4980467;28;20058;-50
2022/06/01 01:01:21;;;;;;;2.67;1.45;;;15.40;53.20;;;;;;4979418;28;20062;-48
2022/06/01 01:03:51;;;;;;;2.60;1.52;;;15.30;53.20;;;;;;4979565;28;20074;-45
2022/06/01 01:06:22;;;;;;;2.78;1.50;;;15.40;53.30;;;;;;4979260;28;20062;-48
2022/06/01 01:08:50;;;;;;;5.20;1.38;;;15.30;53.20;;;;;;4980270;28;20065;-45
2022/06/01 01:11:24;;;;;;;3.05;1.70;;;15.30;53.20;;;;;;4980435;28;20051;-47
2022/06/01 01:13:54;;;;;;;5.30;1.88;;;15.30;53.40;;;;;;4978514;28;20120;-48
2022/06/01 01:16:24;;;;;;;1.67;1.15;;;15.30;53.40;;;;;;4979051;28;21008;-45
2022/06/01 01:18:52;;;;;;;2.47;1.30;;;15.30;53.50;;;;;;4979396;28;20050;-46
2022/06/01 01:21:26;;;;;;;4.05;1.40;;;15.30;53.50;;;;;;4978903;28;20066;-45
2022/06/01 01:23:59;;;;;;;;;;;15.30;53.50;;;;;;4981701;28;20062;-45
2022/06/01 01:26:29;;;;;;;1.70;1.40;;;15.30;53.40;;;;;;4981431;28;19925;-46
2022/06/01 01:28:57;;;;;;;4.05;1.38;;;15.30;53.20;;;;;;4984082;28;20046;-49
2022/06/01 01:31:26;;;;;;;2.17;1.23;;;15.20;53.20;;;;;;4982379;28;20061;-48
2022/06/01 01:33:56;;;;;;;2.17;1.40;;;15.20;53.30;;;;;;4982970;28;20057;-46
2022/06/01 01:36:29;;;;;;;1.95;1.10;;;15.10;53.30;;;;;;4982058;28;20100;-51
2022/06/01 01:39:02;;;;;;;2.25;1.38;;;15.10;53.30;;;;;;4976164;28;20081;-47
2022/06/01 01:41:36;;;;;;;3.33;1.20;;;15.00;53.30;;;;;;4984132;28;20065;-45
2022/06/01 01:44:09;;;;;;;3.85;1.30;;;15.00;53.40;;;;;;4986230;28;20058;-48
2022/06/01 01:46:37;;;;;;;1.77;1.30;;;15.00;53.50;;;;;;4985102;28;20054;-49
2022/06/01 01:49:05;;;;;;;1.42;1.08;;;15.00;53.50;;;;;;4983006;28;20482;-45
2022/06/01 01:51:34;;;;;;;1.92;1.15;;;15.00;53.60;;;;;;4982141;28;20486;-45
2022/06/01 01:54:01;;;;;;;2.55;1.10;;;14.90;53.50;;;;;;4983962;28;20340;-48
2022/06/01 01:56:46;;;;;;;1.10;0.85;;;14.90;53.60;;;;;;4980063;28;20058;-45
2022/06/01 01:59:28;;;;;;;1.15;1.02;;;14.90;53.80;;;;;;4985393;28;20046;-48
2022/06/01 02:02:06;;;;;;;1.58;0.90;;;14.90;53.70;;;;;;4981497;28;20054;-45
2022/06/01 02:07:30;;;;;;;1.92;0.88;;;14.80;53.50;;;;;;4988912;28;20057;-49
2022/06/01 02:12:44;;;;;;;1.10;1.00;;;14.80;53.50;;;;;;4987211;28;20061;-45
2022/06/01 02:15:21;;;;;;;1.58;1.05;;;14.70;53.50;;;;;;4981086;28;20418;-48
2022/06/01 02:17:52;;;;;;;1.23;0.73;;;14.70;53.60;;;;;;4983732;28;20054;-48
2022/06/01 02:20:27;;;;;;;1.90;0.77;;;14.70;53.50;;;;;;4981723;28;20605;-47
2022/06/01 02:22:55;;;;;;;1.20;0.80;;;14.60;53.50;;;;;;4981466;28;20053;-47
2022/06/01 02:25:23;;;;;;;0.75;0.68;;;14.60;53.40;;;;;;4983025;28;20061;-47
2022/06/01 02:27:53;;;;;;;1.20;0.85;;;14.60;53.50;;;;;;4984180;28;20058;-45
2022/06/01 02:30:25;;;;;;;1.55;0.90;;;14.60;53.60;;;;;;4983059;28;20054;-47
2022/06/01 02:32:55;;;;;;;1.40;0.90;;;14.50;53.60;;;;;;4977099;28;20046;-48
2022/06/01 02:35:25;;;;;;;1.38;0.75;;;14.50;53.60;;;;;;4979820;28;20077;-46
2022/06/01 02:37:56;;;;;;;0.68;0.68;;;14.50;53.70;;;;;;4983011;28;20051;-45
2022/06/01 02:40:25;;;;;;;0.90;0.80;;;14.50;53.70;;;;;;4982465;28;20061;-46
2022/06/01 02:42:55;;;;;;;0.85;0.70;;;14.40;53.70;;;;;;4982134;28;20062;-48
2022/06/01 02:45:25;;;;;;;2.33;0.95;;;14.40;53.80;;;;;;4981055;28;20046;-49
2022/06/01 02:47:54;;;;;;;1.55;0.90;;;14.40;53.80;;;;;;4979825;28;20046;-46
2022/06/01 02:50:27;;;;;;;1.60;0.85;;;14.40;53.90;;;;;;4980657;28;20058;-49
2022/06/01 02:52:57;;;;;;;1.23;0.80;;;14.30;53.90;;;;;;4979367;28;20083;-45
2022/06/01 02:55:26;;;;;;;0.70;0.70;;;14.30;53.90;;;;;;4984390;28;20069;-45
2022/06/01 02:57:55;;;;;;;2.42;0.90;;;14.30;53.90;;;;;;4982931;28;20513;-45
2022/06/01 03:00:26;;;;;;;1.08;0.63;;;14.30;53.80;;;;;;4978582;28;21021;-45
2022/06/01 03:02:55;;;;;;;4.15;1.00;;;14.30;53.70;;;;;;4981695;28;20057;-45
2022/06/01 03:05:25;;;;;;;1.95;0.70;;;14.30;53.70;;;;;;4980781;28;20405;-45
2022/06/01 03:07:53;;;;;;;1.65;0.80;;;14.30;53.60;;;;;;4970884;28;20055;-47
2022/06/01 03:10:21;;;;;;;1.77;0.75;;;14.30;53.50;;;;;;4960548;28;20490;-47
2022/06/01 03:12:49;;;;;;;1.42;1.02;;;14.30;53.50;;;;;;4962636;28;20450;-46
2022/06/01 03:15:20;;;;;;;3.15;1.05;;;14.30;53.50;;;;;;4963933;28;20074;-46
2022/06/01 03:17:48;;;;;;;2.47;0.70;;;14.30;53.40;;;;;;4963166;28;20050;-45
2022/06/01 03:20:18;;;;;;;1.85;1.10;;;14.30;53.40;;;;;;4962438;28;20054;-44
2022/06/01 03:22:46;;;;;;;1.85;1.27;;;14.30;53.30;;;;;;4963725;28;20055;-48
2022/06/01 03:25:17;;;;;;;1.70;0.90;;;14.30;53.30;;;;;;4960867;28;20062;-49
2022/06/01 03:27:47;;;;;;;1.48;1.00;;;14.20;53.30;;;;;;4961699;28;20058;-49
2022/06/01 03:30:16;;;;;;;1.90;0.70;;;14.20;53.20;;;;;;4963625;28;20085;-45
2022/06/01 03:32:46;;;;;;;1.40;0.88;;;14.20;53.20;;;;;;4964844;28;20065;-46
2022/06/01 03:35:16;;;;;;;1.67;0.90;;;14.20;53.20;;;;;;4962450;28;20055;-48
2022/06/01 03:37:43;;;;;;;2.03;1.10;;;14.20;53.20;;;;;;4961461;28;20051;-48
2022/06/01 03:40:13;;;;;;;3.42;1.10;;;14.20;53.20;;;;;;4957797;28;20055;-46
2022/06/01 03:42:40;;;;;;;2.42;0.90;;;14.20;53.30;;;;;;4957547;28;20066;-45
2022/06/01 03:47:55;;;;;;;1.60;1.00;;;14.10;53.20;;;;;;4964522;28;20065;-45
2022/06/01 03:50:24;;;;;;;3.63;0.98;;;14.10;53.20;;;;;;4959235;28;20426;-45
2022/06/01 03:52:51;;;;;;;2.08;1.00;;;14.10;53.20;;;;;;4961911;28;20066;-48
2022/06/01 03:55:20;;;;;;;3.00;0.90;;;14.00;53.30;;;;;;4957801;28;20055;-45
2022/06/01 03:57:48;;;;;;;2.25;1.05;;;14.00;53.20;;;;;;4962455;28;20050;-47
2022/06/01 04:00:23;;;;;;;1.02;0.93;;;14.00;53.20;;;;;;4962279;28;20061;-48
2022/06/01 04:02:51;;;;;;;1.65;0.85;;;14.00;53.30;;;;;;4959602;28;20065;-45
2022/06/01 04:05:22;;;;;;;1.95;0.95;;;14.00;53.30;;;;;;4953456;28;20418;-48
2022/06/01 04:07:49;;;;;;;2.40;1.27;;;14.00;53.30;;;;;;4958964;28;20058;-45
2022/06/01 04:10:17;;;;;;;5.05;1.90;;;14.00;53.30;;;;;;4961257;28;20058;-47
2022/06/01 04:12:45;;;;;;;1.70;1.25;;;14.00;53.30;;;;;;4961677;28;20058;-45
2022/06/01 04:15:13;;;;;;;1.83;1.15;;;14.00;53.30;;;;;;4956929;28;20063;-47
2022/06/01 04:17:40;;;;;;;3.88;1.42;;;13.90;53.30;;;;;;4956597;28;20434;-47
2022/06/01 04:20:09;;;;;;;2.00;1.30;;;14.00;53.40;;;;;;4953007;28;20054;-49
2022/06/01 04:22:42;;;;;;;2.10;1.33;;;14.00;53.40;;;;;;4962231;28;20498;-47
2022/06/01 04:25:12;;;;;;;1.75;1.48;;;14.00;53.40;;;;;;4959805;28;20051;-47
2022/06/01 04:27:40;;;;;;;2.50;1.27;;;14.00;53.40;;;;;;4957680;28;20051;-47
2022/06/01 04:30:10;;;;;;;3.17;1.55;;;14.00;53.30;;;;;;4951944;28;20051;-46
2022/06/01 04:32:39;;;;;;;5.70;1.67;;;14.00;53.30;;;;;;4958279;28;20062;-46
2022/06/01 04:35:08;;;;;;;4.05;1.27;;;14.00;53.30;;;;;;4957608;28;20065;-47
2022/06/01 04:37:36;;;;;;;4.35;1.15;;;14.10;53.40;;;;;;4957026;28;20498;-44
2022/06/01 04:40:06;;;;;;;2.55;1.27;;;14.10;53.40;;;;;;4962055;28;20061;-47
2022/06/01 04:42:34;;;;;;;3.42;1.50;;;14.10;53.50;;;;;;4959964;28;20070;-46
2022/06/01 04:45:02;;;;;;;1.65;1.33;;;14.10;53.50;;;;;;4958823;28;20053;-46
2022/06/01 04:47:30;;;;;;;2.38;1.40;;;14.20;53.60;;;;;;4961021;28;20391;-46
2022/06/01 04:49:58;;;;;;;3.20;1.33;;;14.20;53.60;;;;;;4958740;28;20516;-47
2022/06/01 04:52:26;;;;;;;3.97;1.63;;;14.20;53.60;;;;;;4959450;28;20051;-49
2022/06/01 04:54:54;;;;;;;1.92;1.50;;;14.20;53.60;;;;;;4960794;28;20050;-48
2022/06/01 04:57:22;;;;;;;3.35;1.65;;;14.30;53.70;;;;;;4960658;28;20054;-46
2022/06/01 04:59:50;;;;;;;3.97;1.75;;;14.30;53.70;;;;;;4961320;28;20046;-46
2022/06/01 05:02:18;;;;;;;4.20;1.52;;;14.30;53.70;;;;;;4958034;28;20062;-51
2022/06/01 05:04:45;;;;;;;4.53;1.65;;;14.30;53.70;;;;;;4962915;28;20059;-47
2022/06/01 05:07:13;;;;;;;2.58;1.50;;;14.40;53.60;;;;;;4965354;28;20069;-46
2022/06/01 05:09:41;;;;;;;2.40;1.50;;;14.40;53.60;;;;;;4960509;28;20534;-48
2022/06/01 05:12:09;;;;;;;3.47;2.05;;;14.40;53.60;;;;;;4965263;28;20058;-45
2022/06/01 05:14:38;;;;;;;4.28;1.98;;;14.50;53.60;;;;;;4962998;28;20062;-46
2022/06/01 05:17:06;;;;;;;5.68;2.17;;;14.50;53.60;;;;;;4959623;28;20089;-51
2022/06/01 05:19:34;;;;;;;4.00;1.98;;;14.50;53.40;;;;;;4963027;28;20058;-49
2022/06/01 05:22:01;;;;;;;2.90;1.77;;;14.60;53.60;;;;;;4962746;28;20058;-46
2022/06/01 05:24:29;;;;;;;6.80;2.30;;;14.60;53.50;;;;;;4963157;28;20058;-48
2022/06/01 05:26:56;;;;;;;2.58;2.13;;;14.60;53.40;;;;;;4963531;28;20066;-48
2022/06/01 05:29:24;;;;;;;7.45;2.60;;;14.60;53.50;;;;;;4962851;28;20055;-47
2022/06/01 05:31:54;;;;;;;3.67;2.15;;;14.60;53.50;;;;;;4961145;28;20055;-47
2022/06/01 05:34:22;;;;;;;4.70;2.42;;;14.60;53.60;;;;;;4958023;28;20066;-46
2022/06/01 05:36:49;;;;;;;5.90;2.38;;;14.60;53.60;;;;;;4963630;28;20051;-46
2022/06/01 05:39:17;;;;;;;4.57;3.03;;;14.70;53.60;;;;;;4965808;28;20125;-45
2022/06/01 05:41:44;;;;;;;8.23;3.42;;;14.70;53.50;;;;;;4962032;28;20063;-47
2022/06/01 05:44:12;;;;;;;5.35;2.72;;;14.80;53.40;;;;;;4966786;28;20062;-46
2022/06/01 05:46:39;;;;;;;4.35;3.08;;;14.80;53.40;;;;;;4963833;28;20051;-47
2022/06/01 05:49:08;;;;;;;4.30;2.53;;;14.80;53.40;;;;;;4963446;28;20058;-45
2022/06/01 05:51:35;;;;;;;5.25;2.60;;;14.80;53.40;;;;;;4961474;28;20047;-49
2022/06/01 05:54:03;;;;;;;4.95;2.83;;;14.90;53.30;;;;;;4963713;28;20054;-47
2022/06/01 05:56:30;;;;;;;3.97;2.80;;;14.90;53.40;;;;;;4962681;28;20059;-48
2022/06/01 05:58:58;;;;;;;6.00;3.10;;;14.90;53.40;;;;;;4963949;28;20054;-48
2022/06/01 06:01:25;;;;;;;6.25;2.85;;;14.90;53.20;;;;;;4959969;28;20047;-49
2022/06/01 06:03:53;;;;;;;6.47;3.33;;;14.90;53.10;;;;;;4963235;28;20054;-48
2022/06/01 06:06:23;;;;;;;5.57;2.97;;;14.90;53.10;;;;;;4962680;28;20057;-46
2022/06/01 06:08:53;;;;;;;5.50;2.70;;;15.00;53.00;;;;;;4959110;28;20062;-45
2022/06/01 06:11:21;;;;;;;4.15;2.90;;;15.00;53.10;;;;;;4959910;28;20405;-45
2022/06/01 06:13:48;;;;;;;5.68;2.78;;;15.10;53.10;;;;;;4963208;28;20050;-48
2022/06/01 06:16:19;;;;;;;4.75;2.45;;;15.10;53.20;;;;;;4956489;28;20059;-48
2022/06/01 06:18:47;;;;;;;6.20;2.45;;;15.20;53.10;;;;;;4965977;28;20058;-46
2022/06/01 06:21:15;;;;;;;5.00;2.28;;;15.20;53.10;;;;;;4955667;28;20393;-49
2022/06/01 06:23:44;;;;;;;5.70;2.60;;;15.30;53.10;;;;;;4961753;28;20540;-52
2022/06/01 06:26:12;;;;;;;4.22;2.28;;;15.20;53.20;;;;;;4963561;28;20065;-48
2022/06/01 06:28:39;;;;;;;6.05;2.72;;;15.30;53.30;;;;;;4962094;28;20059;-47
2022/06/01 06:31:07;;;;;;;6.13;2.40;;;15.40;53.40;;;;;;4962348;28;20074;-46
2022/06/01 06:33:34;;;;;;;5.40;1.92;;;15.40;53.20;;;;;;4963989;28;20086;-46
2022/06/01 06:36:04;;;;;;;3.92;2.22;;;15.40;52.90;;;;;;4962684;28;20058;-46
2022/06/01 06:38:34;;;;;;;5.60;2.05;;;15.50;52.60;;;;;;4963322;28;20054;-46
2022/06/01 06:41:04;;;;;;;4.60;1.90;;;15.50;52.30;;;;;;4959902;28;20578;-47
2022/06/01 06:43:34;;;;;;;6.28;1.90;;;15.60;52.40;;;;;;4965443;28;20062;-51
2022/06/01 06:46:04;;;;;;;6.50;1.75;;;15.60;51.80;;;;;;4962088;28;20399;-45
2022/06/01 06:48:32;;;;;;;8.88;3.17;;;15.60;51.90;;;;;;4963815;28;20063;-51
2022/06/01 06:51:00;;;;;;;5.07;2.15;;;15.60;51.90;;;;;;4959799;28;20057;-47
2022/06/01 06:53:28;;;;;;;3.65;1.90;;;15.60;52.00;;;;;;4958110;28;20055;-46
2022/06/01 06:55:56;;;;;;;2.63;1.67;;;15.70;52.00;;;;;;4954555;28;20055;-48
2022/06/01 06:58:25;;;;;;;4.75;2.05;;;15.80;52.00;;;;;;4962426;28;20074;-45
2022/06/01 07:00:53;;;;;;;7.57;2.00;;;15.80;51.80;;;;;;4958573;28;20051;-46
2022/06/01 07:03:21;;;;;;;7.53;2.30;;;15.90;51.70;;;;;;4965295;28;20593;-49
2022/06/01 07:08:33;;;;;;;8.45;2.22;;;16.00;51.80;;;;;;4963229;28;20065;-49
2022/06/01 07:11:02;;;;;;;4.88;2.33;;;16.00;50.90;;;;;;4961520;28;20057;-48
2022/06/01 07:13:31;;;;;;;8.57;2.65;;;16.00;51.00;;;;;;4962573;28;20383;-47
2022/06/01 07:16:04;;;;;;;3.35;2.17;;;16.00;51.30;;;;;;4961728;28;20055;-47
2022/06/01 07:18:31;;;;;;;9.07;3.35;;;16.10;51.00;;;;;;4964452;28;20062;-51
2022/06/01 07:20:59;;;;;;;7.03;2.90;;;16.10;50.90;;;;;;4958931;28;20506;-49
2022/06/01 07:23:26;;;;;;;7.78;3.28;;;16.10;50.70;;;;;;4959054;28;20061;-47
2022/06/01 07:25:54;;;;;;;8.05;2.75;;;16.10;50.60;;;;;;4964000;28;20099;-46
2022/06/01 07:28:22;;;;;;;8.10;3.80;;;16.10;50.60;;;;;;4961539;28;20051;-55
2022/06/01 07:30:56;;;;;;;10.50;3.63;;;16.20;50.80;;;;;;4956447;28;20051;-49
2022/06/01 07:33:25;;;;;;;12.98;3.22;;;16.20;50.10;;;;;;4958951;28;20791;-52
2022/06/01 07:35:53;;;;;;;7.78;3.42;;;16.20;50.30;;;;;;4957699;28;20050;-49
2022/06/01 07:43:52;;;;;;;6.85;2.63;;;16.20;50.40;;;;;;4960993;28;20057;-50
2022/06/01 07:46:21;;;;;;;3.00;1.60;;;16.30;49.60;;;;;;4949863;28;20058;-49
2022/06/01 07:48:49;;;;;;;3.05;1.20;;;16.30;48.20;;;;;;4962197;28;20063;-47
2022/06/01 07:51:17;;;;;;;3.30;1.23;;;16.30;48.30;;;;;;4960900;28;20055;-48
2022/06/01 07:53:44;;;;;;;4.75;1.50;;;16.30;48.50;;;;;;4956403;28;20517;-49
2022/06/01 07:56:12;;;;;;;3.50;1.20;;;16.30;47.80;;;;;;4960772;28;20081;-47
2022/06/01 07:58:39;;;;;;;4.80;1.50;;;16.40;48.40;;;;;;4959594;28;20066;-47
2022/06/01 08:01:07;;;;;;;3.78;1.42;;;16.50;48.60;;;;;;4955087;28;20050;-51
2022/06/01 08:03:36;;;;;;;2.75;1.40;;;16.50;48.90;;;;;;4960760;28;20058;-48
2022/06/01 08:06:04;;;;;;;4.80;1.08;;;16.60;49.30;;;;;;4961878;28;20058;-45
2022/06/01 08:08:31;;;;;;;2.95;1.08;;;16.70;49.20;;;;;;4961883;28;20080;-46
2022/06/01 08:10:59;;;;;;;1.75;0.88;;;16.80;48.70;;;;;;4962840;28;20135;-47
2022/06/01 08:13:26;;;;;;;4.68;1.30;;;16.90;48.60;;;;;;4964006;28;20438;-49
2022/06/01 08:15:55;;;;;;;6.03;1.33;;;17.00;47.40;;;;;;4961072;28;20050;-46
2022/06/01 08:18:24;;;;;;;4.50;1.00;;;17.10;47.70;;;;;;4959215;28;20051;-46
2022/06/01 08:20:53;;;;;;;2.60;1.02;;;17.20;47.60;;;;;;4957695;28;20569;-45
2022/06/01 08:23:23;;;;;;;2.40;0.80;;;17.30;47.30;;;;;;4963987;28;20116;-52
2022/06/01 08:25:50;;;;;;;3.03;1.00;;;17.40;46.90;;;;;;4958398;28;20494;-45
2022/06/01 08:28:18;;;;;;;4.78;1.08;;;17.40;46.90;;;;;;4957550;28;20055;-50
2022/06/01 08:30:46;;;;;;;3.55;1.13;;;17.50;46.80;;;;;;4958940;28;20085;-45
2022/06/01 08:33:13;;;;;;;3.25;1.50;;;17.50;46.60;;;;;;4962354;28;20066;-47
2022/06/01 08:35:43;;;;;;;3.13;1.38;;;17.60;47.10;;;;;;4954660;28;20434;-48
2022/06/01 08:38:12;;;;;;;4.90;1.48;;;17.70;46.90;;;;;;4961895;28;20063;-53
2022/06/01 08:40:52;;;;;;;2.10;0.95;;;17.70;46.70;;;;;;4961181;28;20503;-46
2022/06/01 08:43:22;;;;;;;5.10;1.35;;;17.80;46.50;;;;;;4962204;28;20050;-49
2022/06/01 08:45:53;;;;;;;1.25;0.90;;;17.80;45.90;;;;;;4957747;28;20502;-51
2022/06/01 08:48:29;;;;;;;5.13;1.02;;;17.90;45.90;;;;;;4963269;28;20054;-48
2022/06/01 08:50:58;;;;;;;3.30;1.10;;;18.00;46.30;;;;;;4957477;28;20495;-50
2022/06/01 08:53:27;;;;;;;4.57;1.92;;;18.00;46.20;;;;;;4963110;28;20066;-51
2022/06/01 08:55:59;;;;;;;2.95;1.10;;;18.00;45.50;;;;;;4957384;28;20414;-50
2022/06/01 08:58:34;;;;;;;5.32;1.20;;;18.00;45.30;;;;;;4959422;28;20055;-49
2022/06/01 09:01:11;;;;;;;4.43;1.20;;;17.90;45.90;;;;;;4956742;28;20058;-54
2022/06/01 09:03:49;;;;;;;4.38;1.33;;;17.80;46.00;;;;;;4958599;28;20062;-50
2022/06/01 09:06:20;;;;;;;2.83;1.30;;;17.80;46.80;;;;;;4957771;28;20090;-48
2022/06/01 09:08:53;;;;;;;3.33;1.45;;;17.90;46.70;;;;;;4960656;28;20058;-48
2022/06/01 09:11:26;;;;;;;3.50;1.13;;;17.90;46.30;;;;;;4959389;28;20411;-54
2022/06/01 09:13:59;;;;;;;3.63;1.30;;;17.90;45.00;;;;;;4960968;28;20058;-49
2022/06/01 09:16:31;;;;;;;4.90;1.30;;;18.00;45.60;;;;;;4960739;28;20067;-50
2022/06/01 09:18:59;;;;;;;3.05;1.08;;;18.00;45.30;;;;;;4961938;28;20058;-48
2022/06/01 09:24:19;;;;;;;2.10;1.08;;;18.00;45.60;;;;;;4969035;28;20418;-50
2022/06/01 09:26:57;;;;;;;7.55;0.90;;;18.00;45.20;;;;;;4958646;28;20515;-49
2022/06/01 09:29:27;;;;;;;5.63;1.35;;;18.10;45.50;;;;;;4958108;28;20054;-50
2022/06/01 09:32:00;;;;;;;3.33;1.23;;;18.10;46.20;;;;;;4955916;28;20047;-51
2022/06/01 09:34:48;;;;;;;4.72;1.13;;;18.10;45.70;;;;;;4956574;28;20414;-52
2022/06/01 09:37:22;;;;;;;6.45;1.20;;;18.20;45.40;;;;;;4963207;28;20096;-52
2022/06/01 09:39:54;;;;;;;2.03;1.00;;;18.20;45.50;;;;;;4962781;28;20054;-46
2022/06/01 09:42:26;;;;;;;3.00;0.88;;;18.20;46.10;;;;;;4956531;28;20444;-49
2022/06/01 09:44:56;;;;;;;3.45;1.10;;;18.20;46.40;;;;;;4962384;28;20054;-47
2022/06/01 09:47:39;;;;;;;4.22;1.10;;;18.30;46.00;;;;;;4956061;28;20059;-54
2022/06/01 09:50:25;;;;;;;6.03;1.33;;;18.40;45.70;;;;;;4963661;28;20054;-53
2022/06/01 09:52:58;;;;;;;4.55;1.23;;;18.40;45.10;;;;;;4960436;28;20062;-53
2022/06/01 09:55:29;;;;;;;3.63;1.10;;;18.40;44.60;;;;;;4958164;28;20063;-53
2022/06/01 09:58:06;;;;;;;3.83;1.08;;;18.40;44.30;;;;;;4961590;28;20050;-50
2022/06/01 10:06:25;;;;;;;4.03;1.15;;;18.50;45.70;;;;;;4962715;28;20427;-46
2022/06/01 10:08:59;;;;;;;2.00;0.85;;;18.60;45.50;;;;;;4963048;28;20058;-46
2022/06/01 10:11:29;;;;;;;;;;;18.70;45.40;;;;;;4964862;28;20581;-49
2022/06/01 10:14:05;;;;;;;6.15;1.10;;;18.80;45.60;;;;;;4964290;28;20401;-50
2022/06/01 10:16:43;;;;;;;1.50;0.80;;;18.80;44.40;;;;;;4961720;28;20396;-51
2022/06/01 10:19:13;;;;;;;3.10;0.73;;;18.80;43.20;;;;;;4963156;28;20057;-52
2022/06/01 10:21:50;;;;;;;3.30;1.10;;;18.80;42.80;;;;;;4960240;28;20051;-52
2022/06/01 10:24:23;;;;;;;4.75;1.02;;;18.80;43.20;;;;;;4965444;28;20062;-51
2022/06/01 10:26:55;;;;;;;3.47;0.80;;;18.80;43.10;;;;;;4962701;28;20057;-50
2022/06/01 10:29:29;;;;;;;2.70;0.95;;;18.80;43.00;;;;;;4963739;28;20068;-48
2022/06/01 10:31:59;;;;;;;4.43;1.00;;;18.80;43.40;;;;;;4961319;28;20058;-49
2022/06/01 10:34:32;;;;;;;4.28;0.80;;;18.80;42.80;;;;;;4960685;28;20498;-47
2022/06/01 10:37:04;;;;;;;2.80;0.80;;;18.80;42.80;;;;;;4963719;28;20050;-55
2022/06/01 10:39:35;;;;;;;2.17;0.65;;;18.80;42.50;;;;;;4962174;28;20059;-48
2022/06/01 10:42:16;;;;;;;1.58;0.63;;;18.80;42.60;;;;;;4961371;28;20061;-48
2022/06/01 10:44:50;;;;;;;2.28;0.93;;;18.80;42.50;;;;;;4965321;28;20066;-50
2022/06/01 10:47:26;;;;;;;1.50;0.60;;;18.80;42.10;;;;;;4964067;28;20074;-45
2022/06/01 10:49:59;;;;;;;2.08;0.80;;;18.90;42.60;;;;;;4959552;28;20396;-45
2022/06/01 10:52:30;;;;;;;2.58;0.80;;;19.00;42.30;;;;;;4958530;28;20054;-54
2022/06/01 10:55:08;;;;;;;1.75;0.65;;;19.10;41.40;;;;;;4963079;28;20062;-50
2022/06/01 10:57:40;;;;;;;1.23;0.80;;;19.20;42.20;;;;;;4965516;28;20054;-54
2022/06/01 11:00:11;;;;;;;3.92;1.00;;;19.20;41.90;;;;;;4959852;28;20063;-52
2022/06/01 11:03:20;;;;;;;4.70;1.23;;;19.30;42.70;;;;;;4962365;28;20526;-53
2022/06/01 11:05:55;;;;;;;4.40;0.90;;;19.30;43.30;;;;;;4918947;28;20530;-54
2022/06/01 11:08:38;;;;;;;1.67;1.00;;;19.30;41.90;;;;;;4962721;28;20077;-49
2022/06/01 11:11:12;;;;;;;8.55;0.93;;;19.20;41.70;;;;;;4956407;28;20066;-54
2022/06/01 11:13:59;;;;;;;;;;;19.20;42.60;;;;;;4962133;28;20127;-53
2022/06/01 11:16:40;;;;;;;1.52;0.80;;;19.20;42.90;;;;;;4958103;28;19926;-51
2022/06/01 11:19:22;;;;;;;5.22;0.77;;;19.20;42.40;;;;;;4954169;28;20063;-50
2022/06/01 11:22:01;;;;;;;14.02;1.15;;;19.10;41.50;;;;;;4954488;28;20055;-49
2022/06/01 11:24:43;;;;;;;1.85;0.75;;;19.00;42.20;;;;;;4962820;28;20522;-51
2022/06/01 11:27:30;;;;;;;1.63;0.70;;;19.10;43.10;;;;;;4962418;28;20054;-48
2022/06/01 11:30:09;;;;;;;7.18;1.63;;;19.10;42.70;;;;;;4964414;28;20054;-46
2022/06/01 11:32:44;;;;;;;3.17;0.73;;;19.20;42.70;;;;;;4964188;28;20527;-50
2022/06/01 11:35:19;;;;;;;4.28;0.90;;;19.30;43.20;;;;;;4961920;28;20522;-55
2022/06/01 11:37:55;;;;;;;1.85;0.70;;;19.40;42.50;;;;;;4963624;28;20490;-47
2022/06/01 11:40:32;;;;;;;2.20;1.00;;;19.50;41.30;;;;;;4962294;28;20057;-52
2022/06/01 11:43:04;;;;;;;4.88;1.27;;;19.60;42.40;;;;;;4963587;28;20042;-51
2022/06/01 11:45:40;;;;;;;1.75;0.73;;;19.60;42.10;;;;;;4964495;28;20066;-49
2022/06/01 11:48:10;;;;;;;3.88;1.17;;;19.70;42.50;;;;;;4964401;28;20062;-53
2022/06/01 11:51:02;;;;;;;5.68;1.33;;;19.60;41.90;;;;;;4962050;28;20065;-49
2022/06/01 11:53:34;;;;;;;1.77;0.93;;;19.60;40.90;;;;;;4961588;28;20047;-54
2022/06/01 11:56:23;;;;;;;2.45;0.98;;;19.60;41.30;;;;;;4961684;28;20059;-53
2022/06/01 11:59:04;;;;;;;3.28;0.80;;;19.50;40.80;;;;;;4963358;28;20069;-51
2022/06/01 12:01:46;;;;;;;1.35;0.73;;;19.50;41.10;;;;;;4962612;28;20102;-54
2022/06/01 12:04:32;;;;;;;2.53;0.80;;;19.50;41.50;;;;;;4964280;28;20054;-49
2022/06/01 12:07:07;;;;;;;3.83;1.13;;;19.40;42.40;;;;;;4963191;28;20051;-49
2022/06/01 12:09:44;;;;;;;1.50;0.73;;;19.40;42.20;;;;;;4964048;28;20510;-51
2022/06/01 12:12:47;;;;;;;3.05;1.25;;;19.40;42.00;;;;;;4962585;28;20426;-52
2022/06/01 12:15:21;;;;;;;2.15;1.35;;;19.50;42.00;;;;;;4962655;28;20066;-47
2022/06/01 12:18:08;;;;;;;5.65;1.20;;;19.50;42.30;;;;;;4964355;28;20066;-50
2022/06/01 12:20:52;;;;;;;2.67;0.88;;;19.60;42.20;;;;;;4960990;28;20507;-50
2022/06/01 12:29:42;;;;;;;3.20;1.00;;;19.80;42.80;;;;;;4963806;28;20066;-49
2022/06/01 12:32:15;;;;;;;4.45;0.90;;;19.90;42.80;;;;;;4960753;28;20062;-47
2022/06/01 12:35:11;;;;;;;3.08;1.23;;;20.00;42.70;;;;;;4959953;28;20047;-54
2022/06/01 12:37:46;;;;;;;4.70;0.88;;;20.00;41.60;;;;;;4952808;28;20055;-48
2022/06/01 12:40:17;;;;;;;4.00;0.93;;;19.90;40.80;;;;;;4963865;28;20061;-47
2022/06/01 12:42:52;;;;;;;3.15;1.33;;;19.90;41.30;;;;;;4962169;28;20491;-51
2022/06/01 12:45:22;;;;;;;1.25;0.60;;;19.90;41.10;;;;;;4963666;28;20054;-49
2022/06/01 12:47:57;;;;;;;1.73;0.93;;;19.90;41.50;;;;;;4963412;28;20058;-51
2022/06/01 12:50:29;;;;;;;3.83;0.95;;;19.90;41.30;;;;;;4961189;28;20411;-50
2022/06/01 12:53:16;;;;;;;4.20;1.13;;;20.00;40.90;;;;;;4961491;28;20059;-53
2022/06/01 12:55:44;;;;;;;6.88;1.63;;;20.10;41.30;;;;;;4961735;28;20061;-51
2022/06/01 12:58:17;;;;;;;1.73;0.93;;;20.20;42.40;;;;;;4963479;28;20050;-47
2022/06/01 13:00:48;;;;;;;2.97;0.93;;;20.30;41.90;;;;;;4961271;28;20054;-47
2022/06/01 13:03:16;;;;;;;4.45;0.77;;;20.40;41.20;;;;;;4963015;28;20058;-49
2022/06/01 13:05:49;;;;;;;3.97;1.30;;;20.50;41.40;;;;;;4962106;28;20059;-52
2022/06/01 13:08:21;;;;;;;2.53;1.00;;;20.60;40.00;;;;;;4961293;28;20784;-49
2022/06/01 13:10:48;;;;;;;2.85;1.20;;;20.60;40.30;;;;;;4959856;28;20054;-50
2022/06/01 13:13:23;;;;;;;2.10;0.90;;;20.60;40.30;;;;;;4957250;28;20058;-50
2022/06/01 13:15:58;;;;;;;2.45;0.75;;;20.60;40.60;;;;;;4960544;28;20065;-52
2022/06/01 13:18:30;;;;;;;4.22;1.00;;;20.60;40.70;;;;;;4962605;28;20055;-48
2022/06/01 13:21:07;;;;;;;3.35;1.02;;;20.60;40.00;;;;;;4958652;28;20495;-53
2022/06/01 13:23:51;;;;;;;8.05;0.95;;;20.60;39.70;;;;;;4955993;28;20051;-50
2022/06/01 13:26:29;;;;;;;4.03;0.73;;;20.60;40.80;;;;;;4967010;28;20063;-48
2022/06/01 13:29:08;;;;;;;3.05;0.90;;;20.70;41.10;;;;;;4966804;28;20050;-49
2022/06/01 13:31:37;;;;;;;2.72;0.85;;;20.70;41.50;;;;;;4963677;28;20053;-47
2022/06/01 13:34:07;;;;;;;4.57;0.70;;;20.80;41.60;;;;;;4961650;28;20046;-50
2022/06/01 13:36:41;;;;;;;2.63;0.90;;;20.90;41.20;;;;;;4964543;28;20061;-49
2022/06/01 13:39:11;;;;;;;4.57;0.90;;;21.00;39.70;;;;;;4964581;28;20062;-49
2022/06/01 13:41:41;;;;;;;2.05;0.85;;;21.10;39.30;;;;;;4961831;28;20422;-52